sensor_id;sensor_type;location;lat;lon;timestamp;temperature;humidity
25050;DHT22;13046;49.814;9.918;2023-02-10T09:55:45;0.30;99.90
25050;DHT22;13046;49.814;9.918;2023-02-10T09:58:35;0.20;99.90
25050;DHT22;13046;49.814;9.918;2023-02-10T10:13:47;0.60;99.90
25050;DHT22;13046;49.814;9.918;2023-02-10T10:16:21;0.80;99.90
25050;DHT22;13046;49.814;9.918;2023-02-10T10:21:41;1.10;99.90
25050;DHT22;13046;49.814;9.918;2023-02-10T10:27:11;1.20;99.90
25050;DHT22;13046;49.814;9.918;2023-02-10T10:29:52;1.20;99.90
25050;DHT22;13046;49.814;9.918;2023-02-10T10:32:40;1.20;99.90
25050;DHT22;13046;49.814;9.918;2023-02-10T10:35:35;1.30;99.90
25050;DHT22;13046;49.814;9.918;2023-02-10T10:40:45;1.50;99.90
25050;DHT22;13046;49.814;9.918;2023-02-10T10:43:23;1.60;99.90
25050;DHT22;13046;49.814;9.918;2023-02-10T10:45:55;1.70;99.90
25050;DHT22;13046;49.814;9.918;2023-02-10T10:48:24;1.80;99.90
25050;DHT22;13046;49.814;9.918;2023-02-10T10:50:54;1.90;99.90
25050;DHT22;13046;49.814;9.918;2023-02-10T10:56:03;1.80;99.90
25050;DHT22;13046;49.814;9.918;2023-02-10T10:58:43;1.80;99.90
25050;DHT22;13046;49.814;9.918;2023-02-10T11:01:10;1.70;99.90
25050;DHT22;13046;49.814;9.918;2023-02-10T11:03:36;1.70;99.90
25050;DHT22;13046;49.814;9.918;2023-02-10T11:06:16;1.80;99.90
25050;DHT22;13046;49.814;9.918;2023-02-10T11:08:45;1.70;99.90
25050;DHT22;13046;49.814;9.918;2023-02-10T11:11:14;1.70;99.90
25050;DHT22;13046;49.814;9.918;2023-02-10T11:13:50;1.70;99.90
25050;DHT22;13046;49.814;9.918;2023-02-10T11:16:16;1.80;99.90
25050;DHT22;13046;49.814;9.918;2023-02-10T11:19:00;2.00;99.90
25050;DHT22;13046;49.814;9.918;2023-02-10T11:21:53;2.20;99.90
25050;DHT22;13046;49.814;9.918;2023-02-10T11:24:28;2.30;99.90
25050;DHT22;13046;49.814;9.918;2023-02-10T11:27:14;2.30;99.90
25050;DHT22;13046;49.814;9.918;2023-02-10T11:29:51;2.30;99.90
25050;DHT22;13046;49.814;9.918;2023-02-10T11:32:25;2.40;99.90
25050;DHT22;13046;49.814;9.918;2023-02-10T11:34:54;2.50;99.90
25050;DHT22;13046;49.814;9.918;2023-02-10T11:39:54;2.30;99.90
25050;DHT22;13046;49.814;9.918;2023-02-10T11:42:28;2.30;99.90
25050;DHT22;13046;49.814;9.918;2023-02-10T11:47:36;2.60;99.90
25050;DHT22;13046;49.814;9.918;2023-02-10T11:50:04;2.80;99.90
25050;DHT22;13046;49.814;9.918;2023-02-10T11:52:43;2.90;99.90
25050;DHT22;13046;49.814;9.918;2023-02-10T11:55:12;3.10;99.90
25050;DHT22;13046;49.814;9.918;2023-02-10T11:58:03;3.20;99.90
25050;DHT22;13046;49.814;9.918;2023-02-10T12:01:24;3.30;99.90
25050;DHT22;13046;49.814;9.918;2023-02-10T12:04:02;3.30;99.90
25050;DHT22;13046;49.814;9.918;2023-02-10T12:09:35;3.20;99.90
25050;DHT22;13046;49.814;9.918;2023-02-10T12:12:22;3.30;99.90
25050;DHT22;13046;49.814;9.918;2023-02-10T12:15:29;3.30;99.90
25050;DHT22;13046;49.814;9.918;2023-02-10T12:21:07;3.40;99.90
25050;DHT22;13046;49.814;9.918;2023-02-10T12:31:21;3.80;99.90
25050;DHT22;13046;49.814;9.918;2023-02-10T12:34:18;3.70;99.90
25050;DHT22;13046;49.814;9.918;2023-02-10T12:45:54;4.00;99.90
25050;DHT22;13046;49.814;9.918;2023-02-10T12:48:36;4.00;99.90
25050;DHT22;13046;49.814;9.918;2023-02-10T12:53:53;4.00;99.90
25050;DHT22;13046;49.814;9.918;2023-02-10T12:56:21;4.10;99.90
25050;DHT22;13046;49.814;9.918;2023-02-10T12:59:02;4.20;99.90
25050;DHT22;13046;49.814;9.918;2023-02-10T13:01:35;4.30;99.90
25050;DHT22;13046;49.814;9.918;2023-02-10T13:04:21;4.50;99.90
25050;DHT22;13046;49.814;9.918;2023-02-10T13:06:54;4.60;99.90
25050;DHT22;13046;49.814;9.918;2023-02-10T13:09:38;4.60;99.90
25050;DHT22;13046;49.814;9.918;2023-02-10T13:13:00;4.70;99.90
25050;DHT22;13046;49.814;9.918;2023-02-10T13:15:33;4.60;99.90
25050;DHT22;13046;49.814;9.918;2023-02-10T13:18:02;4.70;99.90
25050;DHT22;13046;49.814;9.918;2023-02-10T13:23:35;4.80;99.90
25050;DHT22;13046;49.814;9.918;2023-02-10T13:29:02;4.70;99.90
25050;DHT22;13046;49.814;9.918;2023-02-10T13:34:41;4.80;99.90
25050;DHT22;13046;49.814;9.918;2023-02-10T13:39:53;4.70;99.90
25050;DHT22;13046;49.814;9.918;2023-02-10T13:42:24;4.60;99.90
25050;DHT22;13046;49.814;9.918;2023-02-10T13:45:03;4.50;99.90
25050;DHT22;13046;49.814;9.918;2023-02-10T13:47:37;4.50;99.90
25050;DHT22;13046;49.814;9.918;2023-02-10T13:52:59;4.50;99.90
25050;DHT22;13046;49.814;9.918;2023-02-10T14:00:42;4.60;99.90
25050;DHT22;13046;49.814;9.918;2023-02-10T14:05:59;4.40;99.90
25050;DHT22;13046;49.814;9.918;2023-02-10T14:08:37;4.40;99.90
25050;DHT22;13046;49.814;9.918;2023-02-10T14:13:38;4.40;99.90
25050;DHT22;13046;49.814;9.918;2023-02-10T14:16:07;4.30;99.90
25050;DHT22;13046;49.814;9.918;2023-02-10T14:18:35;4.40;99.90
25050;DHT22;13046;49.814;9.918;2023-02-10T14:21:05;4.40;99.90
25050;DHT22;13046;49.814;9.918;2023-02-10T14:23:36;4.50;99.90
25050;DHT22;13046;49.814;9.918;2023-02-10T14:26:05;4.50;99.90
25050;DHT22;13046;49.814;9.918;2023-02-10T14:28:38;4.60;99.90
25050;DHT22;13046;49.814;9.918;2023-02-10T14:31:27;4.50;99.90
25050;DHT22;13046;49.814;9.918;2023-02-10T14:33:56;4.50;99.90
25050;DHT22;13046;49.814;9.918;2023-02-10T14:36:22;4.50;99.90
25050;DHT22;13046;49.814;9.918;2023-02-10T14:38:54;4.50;99.90
25050;DHT22;13046;49.814;9.918;2023-02-10T14:41:24;4.50;99.90
25050;DHT22;13046;49.814;9.918;2023-02-10T14:43:51;4.40;99.90
25050;DHT22;13046;49.814;9.918;2023-02-10T14:46:31;4.40;99.90
25050;DHT22;13046;49.814;9.918;2023-02-10T14:49:00;4.40;99.90
25050;DHT22;13046;49.814;9.918;2023-02-10T14:51:28;4.50;99.90
25050;DHT22;13046;49.814;9.918;2023-02-10T14:53:54;4.50;99.90
25050;DHT22;13046;49.814;9.918;2023-02-10T14:56:26;4.50;99.90
25050;DHT22;13046;49.814;9.918;2023-02-10T14:58:53;4.50;99.90
25050;DHT22;13046;49.814;9.918;2023-02-10T15:01:29;4.50;99.90
25050;DHT22;13046;49.814;9.918;2023-02-10T15:03:56;4.50;99.90
25050;DHT22;13046;49.814;9.918;2023-02-10T15:06:24;4.60;99.90
25050;DHT22;13046;49.814;9.918;2023-02-10T15:09:16;4.60;99.90
25050;DHT22;13046;49.814;9.918;2023-02-10T15:11:53;4.70;99.90
25050;DHT22;13046;49.814;9.918;2023-02-10T15:17:48;4.80;99.90
25050;DHT22;13046;49.814;9.918;2023-02-10T15:22:48;4.60;99.90
25050;DHT22;13046;49.814;9.918;2023-02-10T15:27:59;4.60;99.90
25050;DHT22;13046;49.814;9.918;2023-02-10T15:30:28;4.60;99.90
25050;DHT22;13046;49.814;9.918;2023-02-10T15:32:58;4.50;99.90
25050;DHT22;13046;49.814;9.918;2023-02-10T15:35:25;4.50;99.90
25050;DHT22;13046;49.814;9.918;2023-02-10T15:37:56;4.50;99.90
25050;DHT22;13046;49.814;9.918;2023-02-10T15:40:26;4.40;99.90
25050;DHT22;13046;49.814;9.918;2023-02-10T15:42:58;4.30;99.90
25050;DHT22;13046;49.814;9.918;2023-02-10T15:45:25;4.20;99.90
25050;DHT22;13046;49.814;9.918;2023-02-10T15:48:05;4.10;99.90
25050;DHT22;13046;49.814;9.918;2023-02-10T15:50:32;4.00;99.90
25050;DHT22;13046;49.814;9.918;2023-02-10T15:52:59;3.80;99.90
25050;DHT22;13046;49.814;9.918;2023-02-10T15:55:39;3.70;99.90
25050;DHT22;13046;49.814;9.918;2023-02-10T15:58:05;3.70;99.90
25050;DHT22;13046;49.814;9.918;2023-02-10T16:00:36;3.50;99.90
25050;DHT22;13046;49.814;9.918;2023-02-10T16:03:03;3.40;99.90
25050;DHT22;13046;49.814;9.918;2023-02-10T16:05:30;3.30;99.90
25050;DHT22;13046;49.814;9.918;2023-02-10T16:08:09;3.20;99.90
